createdAt,value
2023-04-27T00:00:30.118Z,198.24
2023-04-27T00:01:30.191Z,196.25
2023-04-27T00:02:30.698Z,195.29
2023-04-27T00:03:30.385Z,196.15
2023-04-27T00:04:30.433Z,197.01
2023-04-27T00:05:30.469Z,197.15
2023-04-27T00:06:30.376Z,199.08
2023-04-27T00:07:30.472Z,200.00
2023-04-27T00:08:30.510Z,199.78
2023-04-27T00:09:30.561Z,202.48
2023-04-27T00:10:30.600Z,203.46
2023-04-27T00:11:30.650Z,204.78
2023-04-27T00:12:30.708Z,205.51
2023-04-27T00:13:30.765Z,205.16
2023-04-27T00:14:30.802Z,204.80
2023-04-27T00:15:30.865Z,205.94
2023-04-27T00:16:31.001Z,204.60
2023-04-27T00:17:31.071Z,205.99
2023-04-27T00:18:31.027Z,207.16
2023-04-27T00:19:31.106Z,207.28
2023-04-27T00:20:31.150Z,206.51
2023-04-27T00:21:31.239Z,207.75
2023-04-27T00:22:31.267Z,207.95
2023-04-27T00:23:31.369Z,207.54
2023-04-27T00:24:31.394Z,206.11
2023-04-27T00:25:31.470Z,207.32
2023-04-27T00:26:31.547Z,207.37
2023-04-27T00:27:31.566Z,205.28
2023-04-27T00:28:31.611Z,205.49
2023-04-27T00:29:31.661Z,203.81
2023-04-27T00:30:31.699Z,201.52
2023-04-27T00:31:31.815Z,198.90
2023-04-27T00:32:31.877Z,199.25
2023-04-27T00:33:31.849Z,198.83
2023-04-27T00:34:31.916Z,198.65
2023-04-27T00:35:31.953Z,199.27
2023-04-27T00:36:32.000Z,199.65
2023-04-27T00:37:32.048Z,199.30
2023-04-27T00:38:32.090Z,199.97
2023-04-27T00:39:32.191Z,199.59
2023-04-27T00:40:32.179Z,200.43
2023-04-27T00:41:32.237Z,199.25
2023-04-27T00:42:32.295Z,198.21
2023-04-27T00:43:32.305Z,197.45
2023-04-27T00:44:32.368Z,196.97
2023-04-27T00:45:32.434Z,197.29
2023-04-27T00:46:32.487Z,196.45
2023-04-27T00:47:32.562Z,197.45
2023-04-27T00:48:32.543Z,195.66
2023-04-27T00:49:32.606Z,195.20
2023-04-27T00:50:32.632Z,196.33
2023-04-27T00:51:32.671Z,197.25
2023-04-27T00:52:32.735Z,196.55
2023-04-27T00:53:32.786Z,197.14
2023-04-27T00:54:32.818Z,197.44
2023-04-27T00:55:32.876Z,197.17
2023-04-27T00:56:32.905Z,194.65
2023-04-27T00:57:32.989Z,195.92
2023-04-27T00:58:33.057Z,197.03
2023-04-27T00:59:33.102Z,198.14
2023-04-27T01:00:33.124Z,198.61
2023-04-27T01:01:33.211Z,200.23
2023-04-27T01:02:33.434Z,201.26
2023-04-27T01:03:33.393Z,202.34
2023-04-27T01:04:33.355Z,201.26
2023-04-27T01:05:33.371Z,200.27
2023-04-27T01:06:33.421Z,201.98
2023-04-27T01:07:33.455Z,202.92
2023-04-27T01:08:33.506Z,203.00
2023-04-27T01:09:33.541Z,201.92
2023-04-27T01:10:33.626Z,199.40
2023-04-27T01:11:33.647Z,198.49
2023-04-27T01:12:33.688Z,199.52
2023-04-27T01:13:33.732Z,199.37
2023-04-27T01:14:33.809Z,199.19
2023-04-27T01:15:33.866Z,199.24
2023-04-27T01:16:33.911Z,200.60
2023-04-27T01:17:34.002Z,198.93
2023-04-27T01:18:33.978Z,195.09
2023-04-27T01:19:34.032Z,196.52
2023-04-27T01:20:34.308Z,199.12
2023-04-27T01:21:34.116Z,200.12
2023-04-27T01:22:34.187Z,200.22
2023-04-27T01:23:34.256Z,200.03
2023-04-27T01:24:34.282Z,201.23
2023-04-27T01:25:34.298Z,202.14
2023-04-27T01:26:34.352Z,203.15
2023-04-27T01:27:34.410Z,203.50
2023-04-27T01:28:34.450Z,202.84
2023-04-27T01:29:34.504Z,203.66
2023-04-27T01:30:34.554Z,205.04
2023-04-27T01:31:34.668Z,204.17
2023-04-27T01:32:34.617Z,204.29
2023-04-27T01:33:34.658Z,205.92
2023-04-27T01:34:34.710Z,205.55
2023-04-27T01:35:34.783Z,205.96
2023-04-27T01:36:34.813Z,206.15
2023-04-27T01:37:34.886Z,206.54
2023-04-27T01:38:34.906Z,206.22
2023-04-27T01:39:34.965Z,206.88
2023-04-27T01:40:34.996Z,204.74
2023-04-27T01:41:35.034Z,203.39
2023-04-27T01:42:35.092Z,202.63
2023-04-27T01:43:35.143Z,202.52
2023-04-27T01:44:35.182Z,202.91
2023-04-27T01:45:35.239Z,201.21
2023-04-27T01:46:35.378Z,202.04
2023-04-27T01:47:35.307Z,202.57
2023-04-27T01:48:35.341Z,201.41
2023-04-27T01:49:35.426Z,201.11
2023-04-27T01:50:35.436Z,199.87
2023-04-27T01:51:35.499Z,200.59
2023-04-27T01:52:35.554Z,199.25
2023-04-27T01:53:35.594Z,197.78
2023-04-27T01:54:35.692Z,194.66
2023-04-27T01:55:35.711Z,193.48
2023-04-27T01:56:35.734Z,194.77
2023-04-27T01:57:35.841Z,196.25
2023-04-27T01:58:35.867Z,197.93
2023-04-27T01:59:35.906Z,198.53
2023-04-27T02:00:35.924Z,199.51
2023-04-27T02:01:36.013Z,199.05
2023-04-27T02:02:36.163Z,199.01
2023-04-27T02:03:36.178Z,197.69
2023-04-27T02:04:36.367Z,199.65
2023-04-27T02:05:36.216Z,200.85
2023-04-27T02:06:36.253Z,203.06
2023-04-27T02:07:36.294Z,203.93
2023-04-27T02:08:36.484Z,206.17
2023-04-27T02:09:36.383Z,208.06
2023-04-27T02:10:36.429Z,209.69
2023-04-27T02:11:36.453Z,213.91
2023-04-27T02:12:36.536Z,213.27
2023-04-27T02:13:36.612Z,214.56
2023-04-27T02:14:36.642Z,216.36
2023-04-27T02:15:36.720Z,216.58
2023-04-27T02:16:36.852Z,219.98
2023-04-27T02:17:36.884Z,224.06
2023-04-27T02:18:36.923Z,230.91
2023-04-27T02:19:37.007Z,234.20
2023-04-27T02:20:37.037Z,234.62
2023-04-27T02:21:37.134Z,231.79
2023-04-27T02:22:37.207Z,238.88
2023-04-27T02:23:37.253Z,244.19
2023-04-27T02:24:37.326Z,245.71
2023-04-27T02:25:37.379Z,244.16
2023-04-27T02:26:37.430Z,243.67
2023-04-27T02:27:37.512Z,245.76
2023-04-27T02:28:37.542Z,243.50
2023-04-27T02:29:37.615Z,239.45
2023-04-27T02:30:37.643Z,237.64
2023-04-27T02:31:37.789Z,240.41
2023-04-27T02:32:37.808Z,242.07
2023-04-27T02:33:37.831Z,241.27
2023-04-27T02:34:37.863Z,237.86
2023-04-27T02:35:37.933Z,238.20
2023-04-27T02:36:37.953Z,239.37
2023-04-27T02:37:38.031Z,238.68
2023-04-27T02:38:38.069Z,237.56
2023-04-27T02:39:38.089Z,237.33
2023-04-27T02:40:38.145Z,239.07
2023-04-27T02:41:38.182Z,238.66
2023-04-27T02:42:38.224Z,237.39
2023-04-27T02:43:38.293Z,237.96
2023-04-27T02:44:38.317Z,235.94
2023-04-27T02:45:38.442Z,237.20
2023-04-27T02:46:38.456Z,237.97
2023-04-27T02:47:38.484Z,237.50
2023-04-27T02:48:38.433Z,236.92
2023-04-27T02:49:38.480Z,237.93
2023-04-27T02:50:38.554Z,237.24
2023-04-27T02:51:38.604Z,235.68
2023-04-27T02:52:38.635Z,236.67
2023-04-27T02:53:38.661Z,236.88
2023-04-27T02:54:38.688Z,237.12
2023-04-27T02:55:38.701Z,237.18
2023-04-27T02:56:38.738Z,236.35
2023-04-27T02:57:38.784Z,236.61
2023-04-27T02:58:38.809Z,235.80
2023-04-27T02:59:38.825Z,238.37
2023-04-27T03:00:38.851Z,237.41
2023-04-27T03:01:39.146Z,238.10
2023-04-27T03:02:39.153Z,236.73
2023-04-27T03:03:39.217Z,236.73
2023-04-27T03:04:39.073Z,235.14
2023-04-27T03:05:39.030Z,234.53
2023-04-27T03:06:39.078Z,236.41
2023-04-27T03:07:39.072Z,237.31
2023-04-27T03:08:39.125Z,236.88
2023-04-27T03:09:39.158Z,239.41
2023-04-27T03:10:39.198Z,240.84
2023-04-27T03:11:39.211Z,241.54
2023-04-27T03:12:39.248Z,242.30
2023-04-27T03:13:39.256Z,241.82
2023-04-27T03:14:39.290Z,241.35
2023-04-27T03:15:39.328Z,240.89
2023-04-27T03:16:39.390Z,241.33
2023-04-27T03:17:39.383Z,240.45
2023-04-27T03:18:39.406Z,239.79
2023-04-27T03:19:39.407Z,240.23
2023-04-27T03:20:39.463Z,241.98
2023-04-27T03:21:39.449Z,241.02
2023-04-27T03:22:39.498Z,239.93
2023-04-27T03:23:39.476Z,239.55
2023-04-27T03:24:39.486Z,239.15
2023-04-27T03:25:39.551Z,239.18
2023-04-27T03:26:39.522Z,239.25
2023-04-27T03:27:39.569Z,238.95
2023-04-27T03:28:39.598Z,237.73
2023-04-27T03:29:39.606Z,238.69
2023-04-27T03:30:39.605Z,239.00
2023-04-27T03:31:39.645Z,240.40
2023-04-27T03:32:39.684Z,239.29
2023-04-27T03:33:39.659Z,239.50
2023-04-27T03:34:39.663Z,238.84
2023-04-27T03:35:39.685Z,239.11
2023-04-27T03:36:39.662Z,238.80
2023-04-27T03:37:39.716Z,238.98
2023-04-27T03:38:39.695Z,238.69
2023-04-27T03:39:39.726Z,237.91
2023-04-27T03:40:39.704Z,236.84
2023-04-27T03:41:39.725Z,237.92
2023-04-27T03:42:39.726Z,237.58
2023-04-27T03:43:39.741Z,237.87
2023-04-27T03:44:39.832Z,237.14
2023-04-27T03:45:39.771Z,238.36
2023-04-27T03:46:39.737Z,241.33
2023-04-27T03:47:39.874Z,242.16
2023-04-27T03:48:39.782Z,241.80
2023-04-27T03:49:39.826Z,241.06
2023-04-27T03:50:39.794Z,238.93
2023-04-27T03:51:39.809Z,237.95
2023-04-27T03:52:39.833Z,238.65
2023-04-27T03:53:39.858Z,238.41
2023-04-27T03:54:39.871Z,240.58
2023-04-27T03:55:39.871Z,240.89
2023-04-27T03:56:39.886Z,243.09
2023-04-27T03:57:39.882Z,243.11
2023-04-27T03:58:39.927Z,244.15
2023-04-27T03:59:39.911Z,243.83
2023-04-27T04:00:40.012Z,243.20
2023-04-27T04:01:40.014Z,242.85
2023-04-27T04:02:40.073Z,243.06
2023-04-27T04:03:40.082Z,241.82
2023-04-27T04:04:40.214Z,241.30
2023-04-27T04:05:39.986Z,241.16
2023-04-27T04:06:40.006Z,240.36
2023-04-27T04:07:40.003Z,240.70
2023-04-27T04:08:39.988Z,240.04
2023-04-27T04:09:40.024Z,242.22
2023-04-27T04:10:40.012Z,242.12
2023-04-27T04:11:40.042Z,241.41
2023-04-27T04:12:40.017Z,241.94
2023-04-27T04:13:39.994Z,241.08
2023-04-27T04:14:40.066Z,241.53
2023-04-27T04:15:40.123Z,241.04
2023-04-27T04:16:40.068Z,241.27
2023-04-27T04:17:40.053Z,242.08
2023-04-27T04:18:40.017Z,242.61
2023-04-27T04:19:40.036Z,241.06
2023-04-27T04:20:40.048Z,242.15
2023-04-27T04:21:40.013Z,243.06
2023-04-27T04:22:40.023Z,244.07
2023-04-27T04:23:40.062Z,244.09
2023-04-27T04:24:40.083Z,245.30
2023-04-27T04:25:40.038Z,245.15
2023-04-27T04:26:40.035Z,245.70
2023-04-27T04:27:40.080Z,246.06
2023-04-27T04:28:40.047Z,247.21
2023-04-27T04:29:40.018Z,248.17
2023-04-27T04:30:40.035Z,247.35
2023-04-27T04:31:40.073Z,247.76
2023-04-27T04:32:40.082Z,249.49
2023-04-27T04:33:40.067Z,249.75
2023-04-27T04:34:40.034Z,249.35
2023-04-27T04:35:40.093Z,249.90
2023-04-27T04:36:40.032Z,249.88
2023-04-27T04:37:40.058Z,249.74
2023-04-27T04:38:40.042Z,250.00
2023-04-27T04:39:40.003Z,249.51
2023-04-27T04:40:40.058Z,249.01
2023-04-27T04:41:40.045Z,249.27
2023-04-27T04:42:40.012Z,249.08
2023-04-27T04:43:40.021Z,249.95
2023-04-27T04:44:40.000Z,249.96
2023-04-27T04:45:40.021Z,249.27
2023-04-27T04:46:40.086Z,250.00
2023-04-27T04:47:40.127Z,249.73
2023-04-27T04:48:40.025Z,249.61
2023-04-27T04:49:40.010Z,250.00
2023-04-27T04:50:40.019Z,249.52
2023-04-27T04:51:39.991Z,249.78
2023-04-27T04:52:40.010Z,249.54
2023-04-27T04:53:40.018Z,249.99
2023-04-27T04:54:40.016Z,249.61
2023-04-27T04:55:39.990Z,250.00
2023-04-27T04:56:39.984Z,248.79
2023-04-27T04:57:40.019Z,250.00
2023-04-27T04:58:40.028Z,249.89
2023-04-27T04:59:40.010Z,249.43
2023-04-27T05:00:46.995Z,249.81
2023-04-27T05:01:47.049Z,249.91
2023-04-27T05:02:40.120Z,250.01
2023-04-27T05:03:40.186Z,250.60
2023-04-27T05:04:40.072Z,251.08
2023-04-27T05:05:39.955Z,251.46
2023-04-27T05:06:39.957Z,251.78
2023-04-27T05:07:39.936Z,249.18
2023-04-27T05:08:39.919Z,249.77
2023-04-27T05:09:39.969Z,249.45
2023-04-27T05:10:39.926Z,249.02
2023-04-27T05:11:39.925Z,249.22
2023-04-27T05:12:39.927Z,248.90
2023-04-27T05:13:39.898Z,247.88
2023-04-27T05:14:39.902Z,248.79
2023-04-27T05:15:39.896Z,249.34
2023-04-27T05:16:40.002Z,249.94
2023-04-27T05:17:39.912Z,249.74
2023-04-27T05:18:39.879Z,249.58
2023-04-27T05:19:39.870Z,250.00
2023-04-27T05:20:39.856Z,249.83
2023-04-27T05:21:39.846Z,248.85
2023-04-27T05:22:39.838Z,249.48
2023-04-27T05:23:39.821Z,250.00
2023-04-27T05:24:39.876Z,249.71
2023-04-27T05:25:39.832Z,249.34
2023-04-27T05:26:39.818Z,249.51
2023-04-27T05:27:39.794Z,249.63
2023-04-27T05:28:39.803Z,250.00
2023-04-27T05:29:39.802Z,249.95
2023-04-27T05:30:39.805Z,249.76
2023-04-27T05:31:39.826Z,249.65
2023-04-27T05:32:40.270Z,249.52
2023-04-27T05:33:39.820Z,249.35
2023-04-27T05:34:39.802Z,248.42
2023-04-27T05:35:39.748Z,247.52
2023-04-27T05:36:39.759Z,247.33
2023-04-27T05:37:39.754Z,246.56
2023-04-27T05:38:39.740Z,247.04
2023-04-27T05:39:39.732Z,248.57
2023-04-27T05:40:39.710Z,249.67
2023-04-27T05:41:39.700Z,250.00
2023-04-27T05:42:39.741Z,249.88
2023-04-27T05:43:39.751Z,250.00
2023-04-27T05:44:39.724Z,250.10
2023-04-27T05:45:39.732Z,250.00
2023-04-27T05:46:46.698Z,250.00
2023-04-27T05:47:39.875Z,250.25
2023-04-27T05:48:39.667Z,251.70
2023-04-27T05:49:39.663Z,253.97
2023-04-27T05:50:39.654Z,262.04
2023-04-27T05:51:39.628Z,276.23
2023-04-27T05:52:39.640Z,269.79
2023-04-27T05:53:39.631Z,264.15
2023-04-27T05:54:39.657Z,265.44
2023-04-27T05:55:39.630Z,253.68
2023-04-27T05:56:39.660Z,249.94
2023-04-27T05:57:40.360Z,249.26
2023-04-27T05:58:39.607Z,248.85
2023-04-27T05:59:39.590Z,250.00
2023-04-27T06:00:39.597Z,248.88
2023-04-27T06:01:39.571Z,249.88
2023-04-27T06:02:39.680Z,251.07
2023-04-27T06:03:39.778Z,248.02
2023-04-27T06:04:39.630Z,243.39
2023-04-27T06:05:39.600Z,242.21
2023-04-27T06:06:39.528Z,241.48
2023-04-27T06:07:39.559Z,244.68
2023-04-27T06:08:39.585Z,246.85
2023-04-27T06:09:39.529Z,254.53
2023-04-27T06:10:39.497Z,247.43
2023-04-27T06:11:39.498Z,248.73
2023-04-27T06:12:39.492Z,250.00
2023-04-27T06:13:39.752Z,249.72
2023-04-27T06:14:39.497Z,250.12
2023-04-27T06:15:39.577Z,250.22
2023-04-27T06:16:39.471Z,251.47
2023-04-27T06:17:39.511Z,249.79
2023-04-27T06:18:39.440Z,249.59
2023-04-27T06:19:39.464Z,250.31
2023-04-27T06:20:39.442Z,249.97
2023-04-27T06:21:39.433Z,262.25
2023-04-27T06:22:39.463Z,252.19
2023-04-27T06:23:39.418Z,248.78
2023-04-27T06:24:39.490Z,249.29
2023-04-27T06:25:39.433Z,250.00
2023-04-27T06:26:39.399Z,248.35
2023-04-27T06:27:39.407Z,250.59
2023-04-27T06:28:39.379Z,254.01
2023-04-27T06:29:39.387Z,253.94
2023-04-27T06:30:39.755Z,249.34
2023-04-27T06:31:39.459Z,248.02
2023-04-27T06:32:39.404Z,241.57
2023-04-27T06:33:39.802Z,228.32
2023-04-27T06:34:39.418Z,224.54
2023-04-27T06:35:39.473Z,218.24
2023-04-27T06:36:39.525Z,216.05
2023-04-27T06:37:39.536Z,215.16
2023-04-27T06:38:39.792Z,213.52
2023-04-27T06:39:39.663Z,210.32
2023-04-27T06:40:39.756Z,212.68
2023-04-27T06:41:39.786Z,207.69
2023-04-27T06:42:39.929Z,208.52
2023-04-27T06:43:40.350Z,219.33
2023-04-27T06:44:39.869Z,225.56
2023-04-27T06:45:39.882Z,224.44
2023-04-27T06:46:39.936Z,224.39
2023-04-27T06:47:39.910Z,220.81
2023-04-27T06:48:39.885Z,217.13
2023-04-27T06:49:39.895Z,221.59
2023-04-27T06:50:39.910Z,218.80
2023-04-27T06:51:39.960Z,213.98
2023-04-27T06:52:39.947Z,219.79
2023-04-27T06:53:40.058Z,229.95
2023-04-27T06:54:40.008Z,228.88
2023-04-27T06:55:43.028Z,233.13
2023-04-27T06:56:40.076Z,235.65
2023-04-27T06:57:40.021Z,231.30
2023-04-27T06:58:40.023Z,230.57
2023-04-27T06:59:40.000Z,232.20
2023-04-27T07:00:39.989Z,231.15
2023-04-27T07:01:40.087Z,228.90
2023-04-27T07:02:40.118Z,227.76
2023-04-27T07:03:40.292Z,226.58
2023-04-27T07:04:39.992Z,227.14
2023-04-27T07:05:39.981Z,224.76
2023-04-27T07:06:39.951Z,223.92
2023-04-27T07:07:39.914Z,222.22
2023-04-27T07:08:39.936Z,223.45
2023-04-27T07:09:39.933Z,222.55
2023-04-27T07:10:39.902Z,219.62
2023-04-27T07:11:39.908Z,217.74
2023-04-27T07:12:39.887Z,217.36
2023-04-27T07:13:39.905Z,216.75
2023-04-27T07:14:39.909Z,216.11
2023-04-27T07:15:39.980Z,215.91
2023-04-27T07:16:40.011Z,215.24
2023-04-27T07:17:39.910Z,214.83
2023-04-27T07:18:40.997Z,213.47
2023-04-27T07:19:40.716Z,213.50
2023-04-27T07:20:39.855Z,213.46
2023-04-27T07:21:39.867Z,213.56
2023-04-27T07:22:39.818Z,213.11
2023-04-27T07:23:39.821Z,212.79
2023-04-27T07:24:39.824Z,212.28
2023-04-27T07:25:39.838Z,211.41
2023-04-27T07:26:39.857Z,210.74
2023-04-27T07:27:39.804Z,209.16
2023-04-27T07:28:39.825Z,207.20
2023-04-27T07:29:39.791Z,205.79
2023-04-27T07:30:39.819Z,204.87
2023-04-27T07:31:39.823Z,204.36
2023-04-27T07:32:39.843Z,203.85
2023-04-27T07:33:39.800Z,201.96
2023-04-27T07:34:51.728Z,193.37
2023-04-27T07:35:40.717Z,178.74
2023-04-27T07:36:39.735Z,165.36
2023-04-27T07:37:39.718Z,160.72
2023-04-27T07:38:39.698Z,152.48
2023-04-27T07:39:39.814Z,146.86
2023-04-27T07:40:39.700Z,140.85
2023-04-27T07:41:39.690Z,137.84
2023-04-27T07:42:39.694Z,136.36
2023-04-27T07:43:39.672Z,138.15
2023-04-27T07:44:39.675Z,146.73
2023-04-27T07:45:39.690Z,156.30
2023-04-27T07:46:39.704Z,164.01
2023-04-27T07:47:39.779Z,174.47
2023-04-27T07:48:39.840Z,176.73
2023-04-27T07:49:39.848Z,181.85
2023-04-27T07:50:39.901Z,186.79
2023-04-27T07:51:39.941Z,192.12
2023-04-27T07:52:39.958Z,193.95
2023-04-27T07:53:39.997Z,194.36
2023-04-27T07:54:39.983Z,193.75
2023-04-27T07:55:40.037Z,191.59
2023-04-27T07:56:40.015Z,190.01
2023-04-27T07:57:40.056Z,188.40
2023-04-27T07:58:40.073Z,189.34
2023-04-27T07:59:40.096Z,189.97
2023-04-27T08:00:40.123Z,191.85
2023-04-27T08:01:40.080Z,192.20
2023-04-27T08:02:40.278Z,192.86
2023-04-27T08:03:40.299Z,193.65
2023-04-27T08:04:40.442Z,193.84
2023-04-27T08:05:40.326Z,193.66
2023-04-27T08:06:40.444Z,193.24
2023-04-27T08:07:44.633Z,192.57
2023-04-27T08:08:41.043Z,192.59
2023-04-27T08:09:40.903Z,191.92
2023-04-27T08:10:40.050Z,191.90
2023-04-27T08:11:40.082Z,191.68
2023-04-27T08:12:40.096Z,190.86
2023-04-27T08:13:40.030Z,190.06
2023-04-27T08:14:40.010Z,189.78
2023-04-27T08:15:40.015Z,186.12
2023-04-27T08:16:40.027Z,186.25
2023-04-27T08:17:40.004Z,186.20
2023-04-27T08:18:39.993Z,186.59
2023-04-27T08:19:40.015Z,186.64
2023-04-27T08:20:39.983Z,186.85
2023-04-27T08:21:39.944Z,185.84
2023-04-27T08:22:39.968Z,185.27
2023-04-27T08:23:39.997Z,182.52
2023-04-27T08:24:39.933Z,177.56
2023-04-27T08:25:39.943Z,163.87
2023-04-27T08:26:39.937Z,133.85
2023-04-27T08:27:39.919Z,119.67
2023-04-27T08:28:39.915Z,107.74
2023-04-27T08:29:39.880Z,92.51
2023-04-27T08:30:39.910Z,87.16
2023-04-27T08:31:39.991Z,96.41
2023-04-27T08:32:40.046Z,111.63
2023-04-27T08:33:39.927Z,129.31
2023-04-27T08:34:40.306Z,141.94
2023-04-27T08:35:40.029Z,147.28
2023-04-27T08:36:40.031Z,152.23
2023-04-27T08:37:40.041Z,146.70
2023-04-27T08:38:40.040Z,140.26
2023-04-27T08:39:40.285Z,134.62
2023-04-27T08:40:40.086Z,139.31
2023-04-27T08:41:40.091Z,138.28
2023-04-27T08:42:40.124Z,133.71
2023-04-27T08:43:40.160Z,121.54
2023-04-27T08:44:40.170Z,112.69
2023-04-27T08:45:40.180Z,103.34
2023-04-27T08:46:40.223Z,95.82
2023-04-27T08:47:43.921Z,90.92
2023-04-27T08:48:40.246Z,104.04
2023-04-27T08:49:40.249Z,121.12
2023-04-27T08:50:40.217Z,122.29
2023-04-27T08:51:40.193Z,122.20
2023-04-27T08:52:40.229Z,119.91
2023-04-27T08:53:40.197Z,115.74
2023-04-27T08:54:40.182Z,111.57
2023-04-27T08:55:40.196Z,108.12
2023-04-27T08:56:40.225Z,112.09
2023-04-27T08:57:40.160Z,105.09
2023-04-27T08:58:40.131Z,98.02
2023-04-27T08:59:40.176Z,92.71
2023-04-27T09:00:40.141Z,85.74
2023-04-27T09:01:40.204Z,83.99
2023-04-27T09:02:40.289Z,81.64
2023-04-27T09:03:40.226Z,78.85
2023-04-27T09:04:40.294Z,82.90
2023-04-27T09:05:46.590Z,89.32
2023-04-27T09:06:41.124Z,82.48
2023-04-27T09:07:40.099Z,77.76
2023-04-27T09:08:40.134Z,75.53
2023-04-27T09:09:40.064Z,72.90
2023-04-27T09:10:40.310Z,70.87
2023-04-27T09:11:40.098Z,71.26
2023-04-27T09:12:40.083Z,71.19
2023-04-27T09:13:40.081Z,72.52
2023-04-27T09:14:40.064Z,76.80
2023-04-27T09:15:40.090Z,76.46
2023-04-27T09:16:40.120Z,72.19
2023-04-27T09:17:40.053Z,68.61
2023-04-27T09:18:39.993Z,71.14
2023-04-27T09:19:40.056Z,70.40
2023-04-27T09:20:40.115Z,71.40
2023-04-27T09:21:40.159Z,75.49
2023-04-27T09:22:40.201Z,73.47
2023-04-27T09:23:40.227Z,86.86
2023-04-27T09:24:40.305Z,96.29
2023-04-27T09:25:40.842Z,107.27
2023-04-27T09:26:40.363Z,118.69
2023-04-27T09:27:40.411Z,126.88
2023-04-27T09:28:40.413Z,134.04
2023-04-27T09:29:40.440Z,142.24
2023-04-27T09:30:40.484Z,145.56
2023-04-27T09:31:40.542Z,149.72
2023-04-27T09:32:40.518Z,145.77
2023-04-27T09:33:40.502Z,138.12
2023-04-27T09:34:40.511Z,122.13
2023-04-27T09:35:40.830Z,119.24
2023-04-27T09:36:40.539Z,112.73
2023-04-27T09:37:40.547Z,112.17
2023-04-27T09:38:40.533Z,139.20
2023-04-27T09:39:40.553Z,132.46
2023-04-27T09:40:40.552Z,140.56
2023-04-27T09:41:40.609Z,141.79
2023-04-27T09:42:40.614Z,139.79
2023-04-27T09:43:40.581Z,143.17
2023-04-27T09:44:40.957Z,149.67
2023-04-27T09:45:40.636Z,158.23
2023-04-27T09:46:40.604Z,169.51
2023-04-27T09:47:40.648Z,174.59
2023-04-27T09:48:40.624Z,178.07
2023-04-27T09:49:40.639Z,176.85
2023-04-27T09:50:40.831Z,164.66
2023-04-27T09:51:40.603Z,148.97
2023-04-27T09:52:40.600Z,135.76
2023-04-27T09:53:40.603Z,130.92
2023-04-27T09:54:40.613Z,123.76
2023-04-27T09:55:40.608Z,113.85
2023-04-27T09:56:40.587Z,110.23
2023-04-27T09:57:40.615Z,111.80
2023-04-27T09:58:40.590Z,119.17
2023-04-27T09:59:40.601Z,119.44
2023-04-27T10:00:40.839Z,110.02
2023-04-27T10:01:40.629Z,106.37
2023-04-27T10:02:52.171Z,110.92
2023-04-27T10:03:41.617Z,108.38
2023-04-27T10:04:40.772Z,100.63
2023-04-27T10:05:41.545Z,104.81
2023-04-27T10:06:40.556Z,106.63
2023-04-27T10:07:40.532Z,110.03
2023-04-27T10:08:40.553Z,106.56
2023-04-27T10:09:40.546Z,100.36
2023-04-27T10:10:40.527Z,100.62
2023-04-27T10:11:40.528Z,99.78
2023-04-27T10:12:40.493Z,107.69
2023-04-27T10:13:40.514Z,103.63
2023-04-27T10:14:40.483Z,102.27
2023-04-27T10:15:40.495Z,105.33
2023-04-27T10:16:40.548Z,105.04
2023-04-27T10:17:40.487Z,103.99
2023-04-27T10:18:40.464Z,96.50
2023-04-27T10:19:40.517Z,98.90
2023-04-27T10:20:40.457Z,100.11
2023-04-27T10:21:40.433Z,92.57
2023-04-27T10:22:40.426Z,93.34
2023-04-27T10:23:40.445Z,92.92
2023-04-27T10:24:40.410Z,99.24
2023-04-27T10:25:40.535Z,97.74
2023-04-27T10:26:40.380Z,103.97
2023-04-27T10:27:40.394Z,120.06
2023-04-27T10:28:40.379Z,130.58
2023-04-27T10:29:40.399Z,139.01
2023-04-27T10:30:40.445Z,146.52
2023-04-27T10:31:40.375Z,149.89
2023-04-27T10:32:40.359Z,154.84
2023-04-27T10:33:40.338Z,160.71
2023-04-27T10:34:40.349Z,158.82
2023-04-27T10:35:40.885Z,155.85
2023-04-27T10:36:40.459Z,155.42
2023-04-27T10:37:40.544Z,150.91
2023-04-27T10:38:40.583Z,147.91
2023-04-27T10:39:48.010Z,137.57
2023-04-27T10:40:41.891Z,137.76
2023-04-27T10:41:40.624Z,138.09
2023-04-27T10:42:40.650Z,137.90
2023-04-27T10:43:40.578Z,131.63
2023-04-27T10:44:40.608Z,131.15
2023-04-27T10:45:40.558Z,130.78
2023-04-27T10:46:40.889Z,125.96
2023-04-27T10:47:40.572Z,118.15
2023-04-27T10:48:40.606Z,108.01
2023-04-27T10:49:40.555Z,100.58
2023-04-27T10:50:40.560Z,92.36
2023-04-27T10:51:40.548Z,90.91
2023-04-27T10:52:40.539Z,74.61
2023-04-27T10:53:40.566Z,73.53
2023-04-27T10:54:40.516Z,63.68
2023-04-27T10:55:40.581Z,61.66
2023-04-27T10:56:40.886Z,64.71
2023-04-27T10:57:40.624Z,72.81
2023-04-27T10:58:48.690Z,82.36
2023-04-27T10:59:41.667Z,82.42
2023-04-27T11:00:40.627Z,75.42
2023-04-27T11:01:40.643Z,43.73
2023-04-27T11:02:40.727Z,52.74
2023-04-27T11:03:40.762Z,68.04
2023-04-27T11:04:40.643Z,85.84
2023-04-27T11:05:40.631Z,94.12
2023-04-27T11:06:40.597Z,87.31
2023-04-27T11:07:40.617Z,87.62
2023-04-27T11:08:40.602Z,77.96
2023-04-27T11:09:40.597Z,85.22
2023-04-27T11:10:40.577Z,96.99
2023-04-27T11:11:40.579Z,85.86
2023-04-27T11:12:40.625Z,64.24
2023-04-27T11:13:40.762Z,60.37
2023-04-27T11:14:40.733Z,51.43
2023-04-27T11:15:40.807Z,45.80
2023-04-27T11:16:40.814Z,46.59
2023-04-27T11:17:40.886Z,40.86
2023-04-27T11:18:40.916Z,39.58
2023-04-27T11:19:40.898Z,40.41
2023-04-27T11:20:40.981Z,52.51
2023-04-27T11:21:41.406Z,40.17
2023-04-27T11:22:41.069Z,37.31
2023-04-27T11:23:41.105Z,50.75
2023-04-27T11:24:41.115Z,45.40
2023-04-27T11:25:41.178Z,44.92
2023-04-27T11:26:41.246Z,47.04
2023-04-27T11:27:41.256Z,53.99
2023-04-27T11:28:41.298Z,61.15
2023-04-27T11:29:41.874Z,66.01
2023-04-27T11:30:41.414Z,70.85
2023-04-27T11:31:41.957Z,74.45
2023-04-27T11:32:41.528Z,75.98
2023-04-27T11:33:41.517Z,83.77
2023-04-27T11:34:41.541Z,86.99
2023-04-27T11:35:41.586Z,92.27
2023-04-27T11:36:41.880Z,97.65
2023-04-27T11:37:41.668Z,100.10
2023-04-27T11:38:41.679Z,104.46
2023-04-27T11:39:41.720Z,107.51
2023-04-27T11:40:41.652Z,106.56
2023-04-27T11:41:41.914Z,107.91
2023-04-27T11:42:41.716Z,109.02
2023-04-27T11:43:41.731Z,110.07
2023-04-27T11:44:41.722Z,107.36
2023-04-27T11:45:41.726Z,107.41
2023-04-27T11:46:41.769Z,108.71
2023-04-27T11:47:41.768Z,110.78
2023-04-27T11:48:41.771Z,113.84
2023-04-27T11:49:41.779Z,114.65
2023-04-27T11:50:41.780Z,116.28
2023-04-27T11:51:41.904Z,118.89
2023-04-27T11:52:41.769Z,118.89
2023-04-27T11:53:41.776Z,123.47
2023-04-27T11:54:41.782Z,124.23
2023-04-27T11:55:41.795Z,126.12
2023-04-27T11:56:41.748Z,126.65
2023-04-27T11:57:41.762Z,129.52
2023-04-27T11:58:42.345Z,131.39
2023-04-27T11:59:41.761Z,132.91
2023-04-27T12:00:41.775Z,134.41
2023-04-27T12:01:41.780Z,133.46
2023-04-27T12:02:42.086Z,130.85
2023-04-27T12:04:41.896Z,130.45
2023-04-27T12:05:41.832Z,132.66
2023-04-27T12:06:41.754Z,132.29
2023-04-27T12:07:41.743Z,132.48
2023-04-27T12:08:41.725Z,133.41
2023-04-27T12:09:41.705Z,133.37
2023-04-27T12:10:41.715Z,132.81
2023-04-27T12:11:41.719Z,131.27
2023-04-27T12:12:41.746Z,129.87
2023-04-27T12:13:41.805Z,127.16
2023-04-27T12:14:41.739Z,129.81
2023-04-27T12:15:41.760Z,132.55
2023-04-27T12:16:41.758Z,133.73
2023-04-27T12:17:41.811Z,133.28
2023-04-27T12:18:41.755Z,131.08
2023-04-27T12:19:41.756Z,131.38
2023-04-27T12:20:41.746Z,132.55
2023-04-27T12:21:41.758Z,134.32
2023-04-27T12:22:41.743Z,136.10
2023-04-27T12:23:41.748Z,133.29
2023-04-27T12:24:41.757Z,135.87
2023-04-27T12:25:41.749Z,134.54
2023-04-27T12:26:41.749Z,132.30
2023-04-27T12:27:41.729Z,130.88
2023-04-27T12:28:41.754Z,131.76
2023-04-27T12:29:41.746Z,132.16
2023-04-27T12:30:41.882Z,125.56
2023-04-27T12:31:41.828Z,117.27
2023-04-27T12:32:41.747Z,119.67